sensor_id;sensor_type;location;lat;lon;timestamp;P1;durP1;ratioP1;P2;durP2;ratioP2
12437;SDS011;6283;51.330;12.374;2022-11-06T00:00:20;7.17;;;5.30;;
12437;SDS011;6283;51.330;12.374;2022-11-06T00:02:46;9.83;;;5.73;;
12437;SDS011;6283;51.330;12.374;2022-11-06T00:05:11;10.23;;;5.27;;
12437;SDS011;6283;51.330;12.374;2022-11-06T00:07:56;7.93;;;5.43;;
12437;SDS011;6283;51.330;12.374;2022-11-06T00:10:21;10.30;;;5.93;;
12437;SDS011;6283;51.330;12.374;2022-11-06T00:12:47;8.33;;;5.17;;
12437;SDS011;6283;51.330;12.374;2022-11-06T00:15:13;10.07;;;5.60;;
12437;SDS011;6283;51.330;12.374;2022-11-06T00:17:39;10.67;;;5.60;;
12437;SDS011;6283;51.330;12.374;2022-11-06T00:20:05;8.70;;;5.77;;
12437;SDS011;6283;51.330;12.374;2022-11-06T00:22:32;10.30;;;5.53;;
12437;SDS011;6283;51.330;12.374;2022-11-06T00:24:58;10.53;;;5.83;;
12437;SDS011;6283;51.330;12.374;2022-11-06T00:27:24;12.50;;;6.17;;
12437;SDS011;6283;51.330;12.374;2022-11-06T00:29:50;7.97;;;5.40;;
12437;SDS011;6283;51.330;12.374;2022-11-06T00:32:15;11.30;;;6.03;;
12437;SDS011;6283;51.330;12.374;2022-11-06T00:34:41;10.90;;;5.77;;
12437;SDS011;6283;51.330;12.374;2022-11-06T00:37:06;10.63;;;5.90;;
12437;SDS011;6283;51.330;12.374;2022-11-06T00:39:32;10.43;;;4.90;;
12437;SDS011;6283;51.330;12.374;2022-11-06T00:41:57;7.33;;;5.50;;
12437;SDS011;6283;51.330;12.374;2022-11-06T00:44:23;8.20;;;5.53;;
12437;SDS011;6283;51.330;12.374;2022-11-06T00:46:49;10.27;;;5.60;;
12437;SDS011;6283;51.330;12.374;2022-11-06T00:49:14;10.27;;;6.03;;
12437;SDS011;6283;51.330;12.374;2022-11-06T00:51:40;10.57;;;6.50;;
12437;SDS011;6283;51.330;12.374;2022-11-06T00:54:08;10.23;;;6.20;;
12437;SDS011;6283;51.330;12.374;2022-11-06T00:56:35;7.60;;;4.77;;
12437;SDS011;6283;51.330;12.374;2022-11-06T00:59:01;8.27;;;5.53;;
12437;SDS011;6283;51.330;12.374;2022-11-06T01:01:33;9.47;;;5.83;;
12437;SDS011;6283;51.330;12.374;2022-11-06T01:04:04;9.40;;;5.37;;
12437;SDS011;6283;51.330;12.374;2022-11-06T01:06:37;10.93;;;5.90;;
12437;SDS011;6283;51.330;12.374;2022-11-06T01:09:05;10.80;;;5.40;;
12437;SDS011;6283;51.330;12.374;2022-11-06T01:11:33;9.37;;;5.40;;
12437;SDS011;6283;51.330;12.374;2022-11-06T01:14:03;8.90;;;5.40;;
12437;SDS011;6283;51.330;12.374;2022-11-06T01:16:30;10.57;;;5.67;;
12437;SDS011;6283;51.330;12.374;2022-11-06T01:18:56;9.40;;;5.43;;
12437;SDS011;6283;51.330;12.374;2022-11-06T01:21:24;9.83;;;5.47;;
12437;SDS011;6283;51.330;12.374;2022-11-06T01:24:02;8.83;;;5.50;;
12437;SDS011;6283;51.330;12.374;2022-11-06T01:26:33;9.07;;;5.47;;
12437;SDS011;6283;51.330;12.374;2022-11-06T01:29:00;7.23;;;5.57;;
12437;SDS011;6283;51.330;12.374;2022-11-06T01:31:26;10.00;;;5.77;;
12437;SDS011;6283;51.330;12.374;2022-11-06T01:33:54;8.87;;;6.10;;
12437;SDS011;6283;51.330;12.374;2022-11-06T01:36:20;7.57;;;5.43;;
12437;SDS011;6283;51.330;12.374;2022-11-06T01:38:48;8.73;;;5.77;;
12437;SDS011;6283;51.330;12.374;2022-11-06T01:41:22;9.23;;;5.70;;
12437;SDS011;6283;51.330;12.374;2022-11-06T01:43:51;7.20;;;5.17;;
12437;SDS011;6283;51.330;12.374;2022-11-06T01:46:19;9.57;;;5.80;;
12437;SDS011;6283;51.330;12.374;2022-11-06T01:48:48;9.57;;;5.53;;
12437;SDS011;6283;51.330;12.374;2022-11-06T01:51:20;10.27;;;5.57;;
12437;SDS011;6283;51.330;12.374;2022-11-06T01:53:48;9.00;;;5.40;;
12437;SDS011;6283;51.330;12.374;2022-11-06T01:56:15;10.23;;;5.90;;
12437;SDS011;6283;51.330;12.374;2022-11-06T01:58:42;7.83;;;5.60;;
12437;SDS011;6283;51.330;12.374;2022-11-06T02:01:10;10.43;;;5.90;;
12437;SDS011;6283;51.330;12.374;2022-11-06T02:03:36;9.80;;;5.53;;
12437;SDS011;6283;51.330;12.374;2022-11-06T02:06:03;8.90;;;5.93;;
12437;SDS011;6283;51.330;12.374;2022-11-06T02:08:32;8.63;;;5.07;;
12437;SDS011;6283;51.330;12.374;2022-11-06T02:10:58;10.57;;;5.77;;
12437;SDS011;6283;51.330;12.374;2022-11-06T02:13:32;11.27;;;6.17;;
12437;SDS011;6283;51.330;12.374;2022-11-06T02:16:15;9.87;;;5.50;;
12437;SDS011;6283;51.330;12.374;2022-11-06T02:19:02;11.50;;;5.90;;
12437;SDS011;6283;51.330;12.374;2022-11-06T02:27:14;8.37;;;5.97;;
12437;SDS011;6283;51.330;12.374;2022-11-06T02:29:44;7.80;;;5.80;;
12437;SDS011;6283;51.330;12.374;2022-11-06T02:35:26;11.63;;;5.90;;
12437;SDS011;6283;51.330;12.374;2022-11-06T02:37:54;11.20;;;6.03;;
12437;SDS011;6283;51.330;12.374;2022-11-06T02:40:24;14.63;;;6.00;;
12437;SDS011;6283;51.330;12.374;2022-11-06T02:42:55;8.97;;;5.97;;
12437;SDS011;6283;51.330;12.374;2022-11-06T02:45:23;9.10;;;5.80;;
12437;SDS011;6283;51.330;12.374;2022-11-06T02:47:50;9.40;;;5.77;;
12437;SDS011;6283;51.330;12.374;2022-11-06T02:50:22;15.27;;;6.47;;
12437;SDS011;6283;51.330;12.374;2022-11-06T02:53:00;11.63;;;6.63;;
12437;SDS011;6283;51.330;12.374;2022-11-06T02:55:36;12.03;;;6.00;;
12437;SDS011;6283;51.330;12.374;2022-11-06T02:58:08;10.07;;;6.30;;
12437;SDS011;6283;51.330;12.374;2022-11-06T03:00:38;10.43;;;6.50;;
12437;SDS011;6283;51.330;12.374;2022-11-06T03:03:08;9.30;;;6.53;;
12437;SDS011;6283;51.330;12.374;2022-11-06T03:05:42;10.27;;;5.97;;
12437;SDS011;6283;51.330;12.374;2022-11-06T03:08:34;11.23;;;6.40;;
12437;SDS011;6283;51.330;12.374;2022-11-06T03:11:22;11.57;;;6.77;;
12437;SDS011;6283;51.330;12.374;2022-11-06T03:16:52;12.60;;;6.50;;
12437;SDS011;6283;51.330;12.374;2022-11-06T03:27:07;9.73;;;6.27;;
12437;SDS011;6283;51.330;12.374;2022-11-06T03:29:42;10.73;;;6.73;;
12437;SDS011;6283;51.330;12.374;2022-11-06T03:32:14;10.00;;;6.60;;
12437;SDS011;6283;51.330;12.374;2022-11-06T03:34:52;13.27;;;7.30;;
12437;SDS011;6283;51.330;12.374;2022-11-06T03:37:26;11.03;;;7.53;;
12437;SDS011;6283;51.330;12.374;2022-11-06T03:39:57;14.27;;;6.60;;
12437;SDS011;6283;51.330;12.374;2022-11-06T03:42:27;10.97;;;6.57;;
12437;SDS011;6283;51.330;12.374;2022-11-06T03:44:59;11.80;;;6.73;;
12437;SDS011;6283;51.330;12.374;2022-11-06T03:47:30;9.87;;;7.07;;
12437;SDS011;6283;51.330;12.374;2022-11-06T03:50:23;9.67;;;6.77;;
12437;SDS011;6283;51.330;12.374;2022-11-06T03:52:53;11.97;;;6.47;;
12437;SDS011;6283;51.330;12.374;2022-11-06T03:55:33;10.23;;;6.93;;
12437;SDS011;6283;51.330;12.374;2022-11-06T03:58:08;11.60;;;6.90;;
12437;SDS011;6283;51.330;12.374;2022-11-06T04:00:37;9.07;;;6.07;;
12437;SDS011;6283;51.330;12.374;2022-11-06T04:03:07;9.87;;;6.33;;
12437;SDS011;6283;51.330;12.374;2022-11-06T04:05:47;13.37;;;6.80;;
12437;SDS011;6283;51.330;12.374;2022-11-06T04:08:26;11.30;;;7.37;;
12437;SDS011;6283;51.330;12.374;2022-11-06T04:11:14;12.10;;;6.73;;
12437;SDS011;6283;51.330;12.374;2022-11-06T04:14:02;11.27;;;7.23;;
12437;SDS011;6283;51.330;12.374;2022-11-06T04:16:32;11.47;;;7.47;;
12437;SDS011;6283;51.330;12.374;2022-11-06T04:19:02;11.10;;;6.83;;
12437;SDS011;6283;51.330;12.374;2022-11-06T04:30:15;12.37;;;7.27;;
12437;SDS011;6283;51.330;12.374;2022-11-06T04:43:45;11.50;;;6.80;;
12437;SDS011;6283;51.330;12.374;2022-11-06T04:46:22;10.90;;;7.17;;
12437;SDS011;6283;51.330;12.374;2022-11-06T04:48:55;11.87;;;6.90;;
12437;SDS011;6283;51.330;12.374;2022-11-06T04:51:24;10.83;;;6.83;;
12437;SDS011;6283;51.330;12.374;2022-11-06T04:53:52;12.80;;;7.10;;
12437;SDS011;6283;51.330;12.374;2022-11-06T04:56:29;13.67;;;7.60;;
12437;SDS011;6283;51.330;12.374;2022-11-06T04:58:57;12.47;;;7.43;;
12437;SDS011;6283;51.330;12.374;2022-11-06T05:01:23;11.40;;;7.33;;
12437;SDS011;6283;51.330;12.374;2022-11-06T05:03:49;11.50;;;6.77;;
12437;SDS011;6283;51.330;12.374;2022-11-06T05:06:14;13.07;;;7.53;;
12437;SDS011;6283;51.330;12.374;2022-11-06T05:08:40;13.47;;;7.43;;
12437;SDS011;6283;51.330;12.374;2022-11-06T05:11:06;13.20;;;7.87;;
12437;SDS011;6283;51.330;12.374;2022-11-06T05:13:32;12.73;;;7.17;;
12437;SDS011;6283;51.330;12.374;2022-11-06T05:15:58;12.90;;;7.37;;
12437;SDS011;6283;51.330;12.374;2022-11-06T05:18:24;9.50;;;6.67;;
12437;SDS011;6283;51.330;12.374;2022-11-06T05:20:51;10.57;;;7.00;;
12437;SDS011;6283;51.330;12.374;2022-11-06T05:23:35;12.10;;;7.50;;
12437;SDS011;6283;51.330;12.374;2022-11-06T05:26:02;13.47;;;7.47;;
12437;SDS011;6283;51.330;12.374;2022-11-06T05:28:31;12.77;;;7.80;;
12437;SDS011;6283;51.330;12.374;2022-11-06T05:30:57;10.47;;;7.50;;
12437;SDS011;6283;51.330;12.374;2022-11-06T05:33:23;13.27;;;7.27;;
12437;SDS011;6283;51.330;12.374;2022-11-06T05:35:49;8.60;;;6.33;;
12437;SDS011;6283;51.330;12.374;2022-11-06T05:38:15;9.27;;;6.87;;
12437;SDS011;6283;51.330;12.374;2022-11-06T05:40:40;14.17;;;7.40;;
12437;SDS011;6283;51.330;12.374;2022-11-06T05:43:06;12.53;;;7.47;;
12437;SDS011;6283;51.330;12.374;2022-11-06T05:45:31;11.70;;;7.00;;
12437;SDS011;6283;51.330;12.374;2022-11-06T05:47:57;10.70;;;6.60;;
12437;SDS011;6283;51.330;12.374;2022-11-06T05:50:22;12.00;;;7.30;;
12437;SDS011;6283;51.330;12.374;2022-11-06T05:52:48;10.40;;;7.33;;
12437;SDS011;6283;51.330;12.374;2022-11-06T05:55:14;10.43;;;6.43;;
12437;SDS011;6283;51.330;12.374;2022-11-06T05:57:39;12.03;;;7.00;;
12437;SDS011;6283;51.330;12.374;2022-11-06T06:00:05;9.73;;;7.00;;
12437;SDS011;6283;51.330;12.374;2022-11-06T06:02:31;13.07;;;6.47;;
12437;SDS011;6283;51.330;12.374;2022-11-06T06:04:57;8.67;;;6.20;;
12437;SDS011;6283;51.330;12.374;2022-11-06T06:07:22;10.77;;;6.47;;
12437;SDS011;6283;51.330;12.374;2022-11-06T06:09:48;9.17;;;6.07;;
12437;SDS011;6283;51.330;12.374;2022-11-06T06:12:14;10.27;;;6.40;;
12437;SDS011;6283;51.330;12.374;2022-11-06T06:14:39;12.50;;;6.80;;
12437;SDS011;6283;51.330;12.374;2022-11-06T06:17:05;9.83;;;6.03;;
12437;SDS011;6283;51.330;12.374;2022-11-06T06:19:31;8.83;;;6.03;;
12437;SDS011;6283;51.330;12.374;2022-11-06T06:21:57;10.90;;;6.93;;
12437;SDS011;6283;51.330;12.374;2022-11-06T06:24:22;9.60;;;6.53;;
12437;SDS011;6283;51.330;12.374;2022-11-06T06:26:48;10.70;;;6.00;;
12437;SDS011;6283;51.330;12.374;2022-11-06T06:29:14;9.80;;;5.90;;
12437;SDS011;6283;51.330;12.374;2022-11-06T06:31:40;10.47;;;6.20;;
12437;SDS011;6283;51.330;12.374;2022-11-06T06:34:05;10.43;;;5.83;;
12437;SDS011;6283;51.330;12.374;2022-11-06T06:36:31;11.27;;;6.53;;
12437;SDS011;6283;51.330;12.374;2022-11-06T06:38:57;12.57;;;6.30;;
12437;SDS011;6283;51.330;12.374;2022-11-06T06:41:22;11.87;;;6.40;;
12437;SDS011;6283;51.330;12.374;2022-11-06T06:43:48;10.00;;;6.00;;
12437;SDS011;6283;51.330;12.374;2022-11-06T06:46:13;9.90;;;6.77;;
12437;SDS011;6283;51.330;12.374;2022-11-06T06:48:39;10.30;;;6.73;;
12437;SDS011;6283;51.330;12.374;2022-11-06T06:51:05;9.30;;;6.53;;
12437;SDS011;6283;51.330;12.374;2022-11-06T06:53:32;11.97;;;6.67;;
12437;SDS011;6283;51.330;12.374;2022-11-06T06:55:58;9.63;;;6.37;;
12437;SDS011;6283;51.330;12.374;2022-11-06T06:58:25;8.53;;;6.03;;
12437;SDS011;6283;51.330;12.374;2022-11-06T07:00:51;10.97;;;6.40;;
12437;SDS011;6283;51.330;12.374;2022-11-06T07:03:17;11.10;;;6.47;;
12437;SDS011;6283;51.330;12.374;2022-11-06T07:05:42;9.87;;;6.73;;
12437;SDS011;6283;51.330;12.374;2022-11-06T07:08:08;7.13;;;5.60;;
12437;SDS011;6283;51.330;12.374;2022-11-06T07:10:33;10.20;;;7.23;;
12437;SDS011;6283;51.330;12.374;2022-11-06T07:13:00;9.30;;;6.37;;
12437;SDS011;6283;51.330;12.374;2022-11-06T07:15:26;9.60;;;5.70;;
12437;SDS011;6283;51.330;12.374;2022-11-06T07:17:51;11.33;;;6.70;;
12437;SDS011;6283;51.330;12.374;2022-11-06T07:20:17;8.90;;;6.67;;
12437;SDS011;6283;51.330;12.374;2022-11-06T07:22:43;10.03;;;6.20;;
12437;SDS011;6283;51.330;12.374;2022-11-06T07:25:08;8.50;;;5.70;;
12437;SDS011;6283;51.330;12.374;2022-11-06T07:27:34;8.10;;;5.03;;
12437;SDS011;6283;51.330;12.374;2022-11-06T07:29:59;9.13;;;5.57;;
12437;SDS011;6283;51.330;12.374;2022-11-06T07:32:25;8.07;;;5.40;;
12437;SDS011;6283;51.330;12.374;2022-11-06T07:34:51;8.67;;;5.60;;
12437;SDS011;6283;51.330;12.374;2022-11-06T07:37:16;8.10;;;5.50;;
12437;SDS011;6283;51.330;12.374;2022-11-06T07:39:42;7.27;;;5.83;;
12437;SDS011;6283;51.330;12.374;2022-11-06T07:42:08;10.87;;;6.37;;
12437;SDS011;6283;51.330;12.374;2022-11-06T07:44:33;9.33;;;5.80;;
12437;SDS011;6283;51.330;12.374;2022-11-06T07:46:59;7.43;;;5.43;;
12437;SDS011;6283;51.330;12.374;2022-11-06T07:49:24;9.13;;;5.63;;
12437;SDS011;6283;51.330;12.374;2022-11-06T07:51:50;9.47;;;6.77;;
12437;SDS011;6283;51.330;12.374;2022-11-06T07:54:15;9.53;;;6.00;;
12437;SDS011;6283;51.330;12.374;2022-11-06T07:56:41;8.47;;;6.00;;
12437;SDS011;6283;51.330;12.374;2022-11-06T07:59:06;9.77;;;6.20;;
12437;SDS011;6283;51.330;12.374;2022-11-06T08:01:32;8.27;;;5.93;;
12437;SDS011;6283;51.330;12.374;2022-11-06T08:03:58;7.37;;;5.67;;
12437;SDS011;6283;51.330;12.374;2022-11-06T08:06:23;6.83;;;5.00;;
12437;SDS011;6283;51.330;12.374;2022-11-06T08:08:49;8.67;;;5.37;;
12437;SDS011;6283;51.330;12.374;2022-11-06T08:11:14;9.63;;;5.73;;
12437;SDS011;6283;51.330;12.374;2022-11-06T08:13:40;8.23;;;5.97;;
12437;SDS011;6283;51.330;12.374;2022-11-06T08:16:06;9.00;;;5.40;;
12437;SDS011;6283;51.330;12.374;2022-11-06T08:18:37;11.00;;;6.17;;
12437;SDS011;6283;51.330;12.374;2022-11-06T08:21:03;8.13;;;5.97;;
12437;SDS011;6283;51.330;12.374;2022-11-06T08:23:30;8.60;;;5.93;;
12437;SDS011;6283;51.330;12.374;2022-11-06T08:25:56;6.33;;;4.93;;
12437;SDS011;6283;51.330;12.374;2022-11-06T08:28:23;8.87;;;6.17;;
12437;SDS011;6283;51.330;12.374;2022-11-06T08:30:49;8.93;;;5.80;;
12437;SDS011;6283;51.330;12.374;2022-11-06T08:33:15;8.20;;;6.33;;
12437;SDS011;6283;51.330;12.374;2022-11-06T08:35:40;9.90;;;5.97;;
12437;SDS011;6283;51.330;12.374;2022-11-06T08:38:06;9.20;;;5.67;;
12437;SDS011;6283;51.330;12.374;2022-11-06T08:40:32;9.37;;;5.77;;
12437;SDS011;6283;51.330;12.374;2022-11-06T08:42:58;8.80;;;5.63;;
12437;SDS011;6283;51.330;12.374;2022-11-06T08:45:25;8.63;;;5.63;;
12437;SDS011;6283;51.330;12.374;2022-11-06T08:47:50;7.23;;;5.53;;
12437;SDS011;6283;51.330;12.374;2022-11-06T08:50:16;8.83;;;5.53;;
12437;SDS011;6283;51.330;12.374;2022-11-06T08:52:42;10.30;;;5.57;;
12437;SDS011;6283;51.330;12.374;2022-11-06T08:55:07;8.53;;;5.77;;
12437;SDS011;6283;51.330;12.374;2022-11-06T08:57:33;8.90;;;5.50;;
12437;SDS011;6283;51.330;12.374;2022-11-06T08:59:58;9.70;;;5.73;;
12437;SDS011;6283;51.330;12.374;2022-11-06T09:02:24;7.60;;;5.10;;
12437;SDS011;6283;51.330;12.374;2022-11-06T09:04:50;6.57;;;5.17;;
12437;SDS011;6283;51.330;12.374;2022-11-06T09:07:16;8.20;;;5.50;;
12437;SDS011;6283;51.330;12.374;2022-11-06T09:09:41;5.97;;;5.00;;
12437;SDS011;6283;51.330;12.374;2022-11-06T09:12:07;8.37;;;5.40;;
12437;SDS011;6283;51.330;12.374;2022-11-06T09:14:33;9.30;;;5.87;;
12437;SDS011;6283;51.330;12.374;2022-11-06T09:16:58;7.83;;;5.17;;
12437;SDS011;6283;51.330;12.374;2022-11-06T09:19:24;7.83;;;5.33;;
12437;SDS011;6283;51.330;12.374;2022-11-06T09:21:50;11.23;;;5.37;;
12437;SDS011;6283;51.330;12.374;2022-11-06T09:24:15;9.67;;;4.90;;
12437;SDS011;6283;51.330;12.374;2022-11-06T09:26:41;7.73;;;4.90;;
12437;SDS011;6283;51.330;12.374;2022-11-06T09:29:06;9.07;;;5.10;;
12437;SDS011;6283;51.330;12.374;2022-11-06T09:31:32;7.00;;;5.13;;
12437;SDS011;6283;51.330;12.374;2022-11-06T09:33:58;11.03;;;4.93;;
12437;SDS011;6283;51.330;12.374;2022-11-06T09:36:23;8.33;;;4.77;;
12437;SDS011;6283;51.330;12.374;2022-11-06T09:38:49;7.80;;;4.50;;
12437;SDS011;6283;51.330;12.374;2022-11-06T09:41:19;4.67;;;4.20;;
12437;SDS011;6283;51.330;12.374;2022-11-06T09:46:28;7.23;;;4.20;;
12437;SDS011;6283;51.330;12.374;2022-11-06T09:49:05;6.53;;;4.60;;
12437;SDS011;6283;51.330;12.374;2022-11-06T09:58:08;6.20;;;4.00;;
12437;SDS011;6283;51.330;12.374;2022-11-06T10:00:02;8.73;;;3.80;;
12437;SDS011;6283;51.330;12.374;2022-11-06T10:02:31;5.10;;;3.87;;
12437;SDS011;6283;51.330;12.374;2022-11-06T10:07:38;10.13;;;8.07;;
12437;SDS011;6283;51.330;12.374;2022-11-06T10:10:07;5.30;;;3.90;;
12437;SDS011;6283;51.330;12.374;2022-11-06T10:17:45;8.23;;;4.50;;
12437;SDS011;6283;51.330;12.374;2022-11-06T10:20:37;6.87;;;4.23;;
12437;SDS011;6283;51.330;12.374;2022-11-06T10:23:17;5.70;;;3.87;;
12437;SDS011;6283;51.330;12.374;2022-11-06T10:26:10;6.77;;;4.10;;
12437;SDS011;6283;51.330;12.374;2022-11-06T10:32:07;7.77;;;3.73;;
12437;SDS011;6283;51.330;12.374;2022-11-06T10:34:54;5.33;;;3.43;;
12437;SDS011;6283;51.330;12.374;2022-11-06T10:38:09;7.00;;;3.67;;
12437;SDS011;6283;51.330;12.374;2022-11-06T10:40:23;6.97;;;4.10;;
12437;SDS011;6283;51.330;12.374;2022-11-06T10:43:37;3.77;;;3.33;;
12437;SDS011;6283;51.330;12.374;2022-11-06T10:45:55;5.07;;;3.63;;
12437;SDS011;6283;51.330;12.374;2022-11-06T10:48:31;4.83;;;3.40;;
12437;SDS011;6283;51.330;12.374;2022-11-06T10:59:18;4.73;;;3.40;;
12437;SDS011;6283;51.330;12.374;2022-11-06T11:01:44;4.63;;;3.57;;
12437;SDS011;6283;51.330;12.374;2022-11-06T11:04:10;4.23;;;3.37;;
12437;SDS011;6283;51.330;12.374;2022-11-06T11:06:38;4.23;;;3.23;;
12437;SDS011;6283;51.330;12.374;2022-11-06T11:11:56;3.60;;;3.30;;
12437;SDS011;6283;51.330;12.374;2022-11-06T11:14:29;5.20;;;3.20;;
12437;SDS011;6283;51.330;12.374;2022-11-06T11:16:59;3.57;;;2.80;;
12437;SDS011;6283;51.330;12.374;2022-11-06T11:19:33;4.90;;;3.13;;
12437;SDS011;6283;51.330;12.374;2022-11-06T11:22:01;4.47;;;3.17;;
12437;SDS011;6283;51.330;12.374;2022-11-06T11:24:57;4.37;;;3.30;;
12437;SDS011;6283;51.330;12.374;2022-11-06T11:27:25;3.30;;;3.00;;
12437;SDS011;6283;51.330;12.374;2022-11-06T11:29:52;4.73;;;3.30;;
12437;SDS011;6283;51.330;12.374;2022-11-06T11:32:19;5.33;;;2.93;;
12437;SDS011;6283;51.330;12.374;2022-11-06T11:34:46;5.07;;;3.50;;
12437;SDS011;6283;51.330;12.374;2022-11-06T11:37:23;4.70;;;4.23;;
12437;SDS011;6283;51.330;12.374;2022-11-06T11:39:54;5.47;;;3.07;;
12437;SDS011;6283;51.330;12.374;2022-11-06T11:42:40;4.40;;;3.23;;
12437;SDS011;6283;51.330;12.374;2022-11-06T11:47:35;4.10;;;3.10;;
12437;SDS011;6283;51.330;12.374;2022-11-06T11:50:17;4.20;;;3.50;;
12437;SDS011;6283;51.330;12.374;2022-11-06T11:52:51;3.83;;;3.10;;
12437;SDS011;6283;51.330;12.374;2022-11-06T11:55:24;3.30;;;2.90;;
12437;SDS011;6283;51.330;12.374;2022-11-06T11:57:52;3.28;;;2.72;;
12437;SDS011;6283;51.330;12.374;2022-11-06T12:00:20;3.45;;;2.88;;
12437;SDS011;6283;51.330;12.374;2022-11-06T12:03:00;3.65;;;3.10;;
12437;SDS011;6283;51.330;12.374;2022-11-06T12:05:37;2.85;;;2.65;;
12437;SDS011;6283;51.330;12.374;2022-11-06T12:08:05;3.10;;;2.80;;
12437;SDS011;6283;51.330;12.374;2022-11-06T12:10:42;9.65;;;5.90;;
12437;SDS011;6283;51.330;12.374;2022-11-06T12:18:17;11.45;;;3.40;;
12437;SDS011;6283;51.330;12.374;2022-11-06T12:23:42;3.92;;;2.60;;
12437;SDS011;6283;51.330;12.374;2022-11-06T12:29:06;3.95;;;2.50;;
12437;SDS011;6283;51.330;12.374;2022-11-06T12:31:40;5.30;;;2.55;;
12437;SDS011;6283;51.330;12.374;2022-11-06T12:34:09;3.08;;;2.22;;
12437;SDS011;6283;51.330;12.374;2022-11-06T12:36:42;2.75;;;2.40;;
12437;SDS011;6283;51.330;12.374;2022-11-06T12:39:15;3.25;;;2.10;;
12437;SDS011;6283;51.330;12.374;2022-11-06T12:41:47;2.53;;;2.33;;
12437;SDS011;6283;51.330;12.374;2022-11-06T12:44:15;3.25;;;2.17;;
12437;SDS011;6283;51.330;12.374;2022-11-06T12:55:33;3.05;;;2.60;;
12437;SDS011;6283;51.330;12.374;2022-11-06T13:01:19;2.20;;;2.10;;
12437;SDS011;6283;51.330;12.374;2022-11-06T13:16:22;1.90;;;1.80;;
12437;SDS011;6283;51.330;12.374;2022-11-06T13:22:10;3.45;;;2.80;;
12437;SDS011;6283;51.330;12.374;2022-11-06T13:28:20;2.20;;;1.95;;
12437;SDS011;6283;51.330;12.374;2022-11-06T13:30:40;2.75;;;2.20;;
12437;SDS011;6283;51.330;12.374;2022-11-06T13:33:19;4.18;;;1.88;;
12437;SDS011;6283;51.330;12.374;2022-11-06T13:35:52;2.22;;;2.03;;
12437;SDS011;6283;51.330;12.374;2022-11-06T13:38:28;2.92;;;2.10;;
12437;SDS011;6283;51.330;12.374;2022-11-06T13:41:05;2.53;;;2.08;;
12437;SDS011;6283;51.330;12.374;2022-11-06T13:46:11;3.00;;;2.38;;
12437;SDS011;6283;51.330;12.374;2022-11-06T13:54:18;2.15;;;1.85;;
12437;SDS011;6283;51.330;12.374;2022-11-06T14:02:28;2.40;;;2.20;;
12437;SDS011;6283;51.330;12.374;2022-11-06T14:08:23;2.72;;;2.33;;
12437;SDS011;6283;51.330;12.374;2022-11-06T14:10:53;5.75;;;2.67;;
12437;SDS011;6283;51.330;12.374;2022-11-06T14:13:25;3.33;;;2.53;;
12437;SDS011;6283;51.330;12.374;2022-11-06T14:16:04;4.20;;;2.67;;
12437;SDS011;6283;51.330;12.374;2022-11-06T14:18:30;5.15;;;3.13;;
12437;SDS011;6283;51.330;12.374;2022-11-06T14:29:54;3.00;;;2.70;;
12437;SDS011;6283;51.330;12.374;2022-11-06T14:32:42;3.22;;;2.65;;
12437;SDS011;6283;51.330;12.374;2022-11-06T14:40:39;5.90;;;3.28;;
12437;SDS011;6283;51.330;12.374;2022-11-06T14:46:17;6.25;;;3.65;;
12437;SDS011;6283;51.330;12.374;2022-11-06T14:48:44;3.78;;;3.05;;
12437;SDS011;6283;51.330;12.374;2022-11-06T14:51:24;4.40;;;3.17;;
12437;SDS011;6283;51.330;12.374;2022-11-06T14:53:53;4.15;;;3.17;;
12437;SDS011;6283;51.330;12.374;2022-11-06T14:58:50;5.05;;;3.70;;
12437;SDS011;6283;51.330;12.374;2022-11-06T15:01:27;6.88;;;3.95;;
12437;SDS011;6283;51.330;12.374;2022-11-06T15:03:55;5.68;;;3.40;;
12437;SDS011;6283;51.330;12.374;2022-11-06T15:19:19;6.45;;;3.60;;
12437;SDS011;6283;51.330;12.374;2022-11-06T15:24:24;6.57;;;3.75;;
12437;SDS011;6283;51.330;12.374;2022-11-06T15:26:50;6.63;;;4.63;;
12437;SDS011;6283;51.330;12.374;2022-11-06T15:29:24;6.13;;;4.00;;
12437;SDS011;6283;51.330;12.374;2022-11-06T15:31:53;8.43;;;4.70;;
12437;SDS011;6283;51.330;12.374;2022-11-06T15:34:28;4.80;;;4.17;;
12437;SDS011;6283;51.330;12.374;2022-11-06T15:39:38;7.07;;;3.87;;
12437;SDS011;6283;51.330;12.374;2022-11-06T15:42:18;8.73;;;4.73;;
12437;SDS011;6283;51.330;12.374;2022-11-06T15:44:46;5.23;;;3.80;;
12437;SDS011;6283;51.330;12.374;2022-11-06T15:47:26;7.50;;;4.47;;
12437;SDS011;6283;51.330;12.374;2022-11-06T15:52:41;8.77;;;4.70;;
12437;SDS011;6283;51.330;12.374;2022-11-06T15:55:27;6.47;;;4.27;;
12437;SDS011;6283;51.330;12.374;2022-11-06T16:00:32;5.50;;;4.47;;
12437;SDS011;6283;51.330;12.374;2022-11-06T16:03:01;7.50;;;5.13;;
12437;SDS011;6283;51.330;12.374;2022-11-06T16:05:30;8.10;;;4.87;;
12437;SDS011;6283;51.330;12.374;2022-11-06T16:07:58;5.43;;;3.77;;
12437;SDS011;6283;51.330;12.374;2022-11-06T16:10:25;5.10;;;4.27;;
12437;SDS011;6283;51.330;12.374;2022-11-06T16:12:52;6.73;;;4.27;;
12437;SDS011;6283;51.330;12.374;2022-11-06T16:18:10;6.03;;;3.93;;
12437;SDS011;6283;51.330;12.374;2022-11-06T16:20:48;6.03;;;3.93;;
12437;SDS011;6283;51.330;12.374;2022-11-06T16:23:17;5.50;;;4.43;;
12437;SDS011;6283;51.330;12.374;2022-11-06T16:26:02;7.93;;;4.83;;
12437;SDS011;6283;51.330;12.374;2022-11-06T16:28:36;7.77;;;4.27;;
12437;SDS011;6283;51.330;12.374;2022-11-06T16:31:09;6.97;;;4.90;;
12437;SDS011;6283;51.330;12.374;2022-11-06T16:33:37;5.27;;;4.43;;
12437;SDS011;6283;51.330;12.374;2022-11-06T16:36:07;6.10;;;4.10;;
12437;SDS011;6283;51.330;12.374;2022-11-06T16:38:35;5.63;;;4.60;;
12437;SDS011;6283;51.330;12.374;2022-11-06T16:41:02;4.63;;;4.13;;
12437;SDS011;6283;51.330;12.374;2022-11-06T16:43:29;8.50;;;4.70;;
12437;SDS011;6283;51.330;12.374;2022-11-06T16:48:32;7.57;;;5.03;;
12437;SDS011;6283;51.330;12.374;2022-11-06T16:51:07;5.03;;;4.40;;
12437;SDS011;6283;51.330;12.374;2022-11-06T16:53:40;6.30;;;4.87;;
12437;SDS011;6283;51.330;12.374;2022-11-06T16:56:08;7.77;;;4.67;;
12437;SDS011;6283;51.330;12.374;2022-11-06T16:58:42;8.13;;;5.40;;
12437;SDS011;6283;51.330;12.374;2022-11-06T17:01:12;5.07;;;4.53;;
12437;SDS011;6283;51.330;12.374;2022-11-06T17:03:39;8.27;;;4.73;;
12437;SDS011;6283;51.330;12.374;2022-11-06T17:06:19;6.83;;;4.90;;
12437;SDS011;6283;51.330;12.374;2022-11-06T17:09:00;7.80;;;4.60;;
12437;SDS011;6283;51.330;12.374;2022-11-06T17:11:28;6.53;;;5.70;;
12437;SDS011;6283;51.330;12.374;2022-11-06T17:13:53;11.60;;;6.07;;
12437;SDS011;6283;51.330;12.374;2022-11-06T17:16:20;10.10;;;5.20;;
12437;SDS011;6283;51.330;12.374;2022-11-06T17:18:48;21.17;;;5.87;;
12437;SDS011;6283;51.330;12.374;2022-11-06T17:21:18;13.77;;;6.97;;
12437;SDS011;6283;51.330;12.374;2022-11-06T17:23:48;11.33;;;5.93;;
12437;SDS011;6283;51.330;12.374;2022-11-06T17:28:51;10.17;;;6.07;;
12437;SDS011;6283;51.330;12.374;2022-11-06T17:31:19;9.17;;;5.33;;
12437;SDS011;6283;51.330;12.374;2022-11-06T17:33:45;8.47;;;4.80;;
12437;SDS011;6283;51.330;12.374;2022-11-06T17:36:13;17.43;;;6.70;;
12437;SDS011;6283;51.330;12.374;2022-11-06T17:38:42;7.60;;;5.80;;
12437;SDS011;6283;51.330;12.374;2022-11-06T17:41:08;8.93;;;5.43;;
12437;SDS011;6283;51.330;12.374;2022-11-06T17:43:33;7.57;;;5.40;;
12437;SDS011;6283;51.330;12.374;2022-11-06T17:45:59;10.57;;;5.00;;
12437;SDS011;6283;51.330;12.374;2022-11-06T17:48:25;8.73;;;6.03;;
12437;SDS011;6283;51.330;12.374;2022-11-06T17:50:52;9.70;;;6.13;;
12437;SDS011;6283;51.330;12.374;2022-11-06T17:53:37;7.47;;;5.30;;
12437;SDS011;6283;51.330;12.374;2022-11-06T17:56:03;11.07;;;6.10;;
12437;SDS011;6283;51.330;12.374;2022-11-06T17:58:30;6.43;;;5.23;;
12437;SDS011;6283;51.330;12.374;2022-11-06T18:01:03;8.47;;;5.87;;